Time;durP1;ratioP1;P1;durP2;ratioP2;P2;SDS_P1;SDS_P2;PMS_P1;PMS_P2;Temp;Humidity;BMP_temperature;BMP_pressure;BME280_temperature;BME280_humidity;BME280_pressure;Samples;Min_cycle;Max_cycle;Signal;HPM_P1;HPM_P2
2023/09/29 00:01:32;;;;;;;11.98;6.85;;;;;;;14.27;78.18;100108.16;5007428;28;20056;-71
2023/09/29 00:03:57;;;;;;;11.63;7.65;;;;;;;14.25;78.18;100110.09;5047539;28;20059;-71
2023/09/29 00:06:22;;;;;;;10.20;6.97;;;;;;;14.23;78.44;100128.97;5052599;28;20036;-72
2023/09/29 00:08:48;;;;;;;10.43;7.55;;;;;;;14.24;78.73;100113.75;5038033;28;20419;-70
2023/09/29 00:11:14;;;;;;;10.10;6.75;;;;;;;14.24;78.84;100103.00;5038218;28;20051;-72
2023/09/29 00:13:39;;;;;;;10.25;6.75;;;;;;;14.23;78.81;100109.34;5033587;28;20054;-72
2023/09/29 00:16:05;;;;;;;13.05;7.35;;;;;;;14.24;79.19;100119.09;5023157;28;20036;-71
2023/09/29 00:18:30;;;;;;;11.18;7.45;;;;;;;14.21;78.81;100114.88;5006669;28;20055;-71
2023/09/29 00:20:57;;;;;;;10.27;7.05;;;;;;;14.21;79.01;100111.31;5057266;28;20067;-69
2023/09/29 00:23:22;;;;;;;12.73;7.05;;;;;;;14.21;78.63;100116.69;5058376;28;20040;-70
2023/09/29 00:25:48;;;;;;;9.95;6.50;;;;;;;14.18;78.69;100115.94;5023218;28;20514;-69
2023/09/29 00:28:13;;;;;;;10.98;7.10;;;;;;;14.17;78.89;100114.25;5000422;28;20060;-69
2023/09/29 00:30:38;;;;;;;11.55;5.82;;;;;;;14.15;79.30;100121.53;5039280;28;20039;-70
2023/09/29 00:33:05;;;;;;;11.63;7.50;;;;;;;14.12;79.28;100137.00;5004499;28;20039;-68
2023/09/29 00:35:33;;;;;;;8.23;6.03;;;;;;;14.12;79.63;100132.50;5003327;28;20048;-68
2023/09/29 00:37:59;;;;;;;10.55;7.32;;;;;;;14.07;79.13;100118.63;5017698;28;20040;-68
2023/09/29 00:40:25;;;;;;;11.25;7.15;;;;;;;14.06;79.16;100133.00;5056543;28;20048;-76
2023/09/29 00:42:52;;;;;;;10.57;6.75;;;;;;;14.06;79.62;100142.88;5033594;28;20095;-77
2023/09/29 00:45:22;;;;;;;10.18;6.72;;;;;;;14.05;79.20;100125.94;5034135;28;20044;-76
2023/09/29 00:47:50;;;;;;;12.23;7.20;;;;;;;14.05;80.08;100120.56;5016224;28;20406;-78
2023/09/29 00:50:18;;;;;;;17.27;7.53;;;;;;;14.04;80.31;100134.94;5053321;28;20036;-77
2023/09/29 00:52:46;;;;;;;11.95;7.00;;;;;;;14.03;80.09;100101.06;5037263;28;20045;-77
2023/09/29 00:55:15;;;;;;;11.38;7.15;;;;;;;14.02;79.83;100136.03;5034168;28;20044;-77
2023/09/29 00:57:47;;;;;;;10.55;7.15;;;;;;;14.04;79.86;100124.22;5054808;28;20048;-75
2023/09/29 01:00:21;;;;;;;9.68;6.70;;;;;;;14.01;79.39;100108.38;5052912;28;20047;-75
2023/09/29 01:02:48;;;;;;;16.05;8.05;;;;;;;14.05;79.23;100122.38;5019790;28;20106;-75
2023/09/29 01:05:14;;;;;;;10.65;7.60;;;;;;;14.02;79.93;100122.63;5020562;28;20727;-74
2023/09/29 01:07:41;;;;;;;10.40;7.00;;;;;;;14.00;79.67;100111.16;5035583;28;20045;-77
2023/09/29 01:10:10;;;;;;;12.50;7.03;;;;;;;14.00;79.87;100154.06;5019970;28;20055;-75
2023/09/29 01:12:36;;;;;;;9.20;6.63;;;;;;;13.92;80.12;100119.81;5053765;28;20054;-75
2023/09/29 01:15:03;;;;;;;12.95;7.57;;;;;;;13.92;80.22;100111.75;5050381;28;20051;-75
2023/09/29 01:17:30;;;;;;;10.35;7.10;;;;;;;13.90;80.43;100120.91;4994546;28;20828;-74
2023/09/29 01:19:55;;;;;;;12.52;7.10;;;;;;;13.88;81.16;100129.09;5045257;28;20798;-75
2023/09/29 01:22:21;;;;;;;14.40;7.75;;;;;;;13.85;81.08;100101.66;5053112;28;20036;-74
2023/09/29 01:24:46;;;;;;;13.57;7.32;;;;;;;13.81;80.75;100127.81;5053863;28;20051;-74
2023/09/29 01:27:11;;;;;;;12.38;7.80;;;;;;;13.79;81.20;100124.41;5053887;28;20052;-74
2023/09/29 01:29:39;;;;;;;11.45;7.07;;;;;;;13.76;81.62;100120.16;4997196;28;20052;-74
2023/09/29 01:32:04;;;;;;;10.77;7.05;;;;;;;13.73;81.83;100131.09;5015967;28;20055;-75
2023/09/29 01:34:31;;;;;;;11.18;6.47;;;;;;;13.71;82.17;100126.81;5034804;28;20503;-75
2023/09/29 01:36:57;;;;;;;10.70;6.75;;;;;;;13.69;82.02;100150.19;5052676;28;20388;-74
2023/09/29 01:39:22;;;;;;;10.57;7.55;;;;;;;13.67;82.50;100120.84;5034927;28;20040;-73
2023/09/29 01:41:47;;;;;;;11.05;7.18;;;;;;;13.65;82.43;100128.16;5051511;28;20063;-75
2023/09/29 01:44:13;;;;;;;12.77;7.38;;;;;;;13.64;82.62;100136.31;5054926;28;20055;-76
2023/09/29 01:46:39;;;;;;;10.45;6.70;;;;;;;13.64;82.84;100125.59;5038502;28;20051;-74
2023/09/29 01:49:06;;;;;;;9.05;6.35;;;;;;;13.61;83.02;100115.13;5041986;28;20055;-75
2023/09/29 01:51:31;;;;;;;19.70;8.00;;;;;;;13.59;82.87;100117.03;5022803;28;20056;-74
2023/09/29 01:53:57;;;;;;;13.23;7.43;;;;;;;13.58;82.70;100121.56;5016980;28;20419;-74
2023/09/29 01:56:23;;;;;;;11.32;7.07;;;;;;;13.55;83.12;100128.97;5063636;28;20055;-75
2023/09/29 01:58:49;;;;;;;12.23;7.53;;;;;;;13.56;83.20;100133.34;5029117;28;20048;-76
2023/09/29 02:01:14;;;;;;;14.85;7.53;;;;;;;13.56;83.48;100123.47;5029242;28;20044;-75
2023/09/29 02:03:40;;;;;;;11.60;7.28;;;;;;;13.56;83.30;100133.34;5046075;28;20024;-75
2023/09/29 02:06:06;;;;;;;10.70;8.05;;;;;;;13.56;83.86;100123.47;5053476;28;20055;-76
2023/09/29 02:08:31;;;;;;;10.07;6.72;;;;;;;13.57;84.00;100140.41;5052865;28;20043;-76
2023/09/29 02:10:56;;;;;;;10.75;7.05;;;;;;;13.56;83.97;100122.63;5047749;28;20043;-75
2023/09/29 02:13:21;;;;;;;15.60;7.00;;;;;;;13.55;83.73;100137.00;5025245;28;20055;-73
2023/09/29 02:16:12;;;;;;;11.85;7.25;;;;;;;13.55;83.94;100137.00;5032381;28;20060;-75
2023/09/29 02:18:37;;;;;;;12.98;6.53;;;;;;;13.51;84.11;100122.16;5006021;28;20812;-75
2023/09/29 02:21:06;;;;;;;11.32;7.10;;;;;;;13.49;84.20;100137.47;5006611;28;20064;-75
2023/09/29 02:23:33;;;;;;;10.20;7.25;;;;;;;13.45;84.12;100152.91;5060266;28;20036;-74
2023/09/29 02:26:00;;;;;;;10.32;7.15;;;;;;;13.43;84.03;100128.91;5019891;28;20422;-74
2023/09/29 02:28:30;;;;;;;12.60;7.55;;;;;;;13.38;84.29;100125.75;5045551;28;20039;-73
2023/09/29 02:30:56;;;;;;;11.35;7.03;;;;;;;13.37;84.26;100132.06;5049928;28;20056;-75
2023/09/29 02:33:22;;;;;;;11.68;7.15;;;;;;;13.35;84.87;100142.03;5045604;28;20051;-75
2023/09/29 02:35:47;;;;;;;14.65;7.45;;;;;;;13.33;84.94;100122.53;5030157;28;20052;-74
2023/09/29 02:38:13;;;;;;;10.43;7.78;;;;;;;13.30;85.01;100128.16;5030421;28;20035;-74
2023/09/29 02:40:39;;;;;;;11.23;6.95;;;;;;;13.30;84.96;100121.94;5027050;28;20059;-73
2023/09/29 02:43:04;;;;;;;11.57;7.07;;;;;;;13.28;85.39;100129.22;5044944;28;20051;-75
2023/09/29 02:45:29;;;;;;;12.43;7.60;;;;;;;13.24;85.12;100150.03;5042311;28;20044;-75
2023/09/29 02:47:55;;;;;;;15.70;8.55;;;;;;;13.24;85.15;100128.59;5031494;28;20503;-76
2023/09/29 02:50:20;;;;;;;10.77;7.22;;;;;;;13.22;85.05;100125.19;5036212;28;20044;-73
2023/09/29 02:52:46;;;;;;;13.88;8.75;;;;;;;13.21;85.50;100127.97;5060016;28;20058;-74
2023/09/29 02:55:12;;;;;;;12.02;8.40;;;;;;;13.17;85.56;100100.59;5058007;28;20044;-74
2023/09/29 02:57:38;;;;;;;11.82;7.10;;;;;;;13.12;84.83;100125.94;5036518;28;20033;-75
2023/09/29 03:00:23;;;;;;;14.52;7.35;;;;;;;13.09;85.11;100156.50;5050288;28;20043;-77
2023/09/29 03:02:51;;;;;;;12.80;6.72;;;;;;;13.06;85.37;100129.94;5044763;28;20052;-75
2023/09/29 03:05:16;;;;;;;9.70;7.00;;;;;;;13.05;85.53;100133.59;5041189;28;20048;-74
2023/09/29 03:07:42;;;;;;;12.80;8.25;;;;;;;13.01;85.37;100132.09;5054750;28;20040;-73
2023/09/29 03:10:08;;;;;;;15.20;7.63;;;;;;;13.02;85.95;100133.81;5018939;28;20052;-74
2023/09/29 03:12:36;;;;;;;14.60;7.75;;;;;;;12.98;86.61;100138.53;5040230;28;20553;-75
2023/09/29 03:15:03;;;;;;;14.68;7.43;;;;;;;12.98;86.30;100127.00;5054790;28;20060;-80
2023/09/29 03:17:31;;;;;;;10.57;6.80;;;;;;;12.97;86.40;100135.97;5067265;28;20052;-77
2023/09/29 03:19:58;;;;;;;9.90;6.47;;;;;;;12.96;86.94;100139.63;5071619;28;20028;-77
2023/09/29 03:22:23;;;;;;;10.68;6.70;;;;;;;12.94;86.92;100141.56;5022051;28;20040;-78
2023/09/29 03:24:48;;;;;;;14.38;8.38;;;;;;;12.94;86.48;100141.56;5052496;28;20067;-78
2023/09/29 03:27:14;;;;;;;12.18;7.30;;;;;;;12.91;86.50;100128.38;5038375;28;20035;-77
2023/09/29 03:29:39;;;;;;;10.73;7.13;;;;;;;12.90;87.36;100130.22;5048586;28;20534;-78
2023/09/29 03:32:08;;;;;;;10.23;6.35;;;;;;;12.90;87.15;100145.41;5053881;28;20055;-78
2023/09/29 03:34:33;;;;;;;10.20;7.20;;;;;;;12.92;86.34;100132.78;5056045;28;20456;-80
2023/09/29 03:36:58;;;;;;;10.65;6.55;;;;;;;12.92;86.72;100119.41;5039082;28;20063;-78
2023/09/29 03:39:23;;;;;;;11.57;7.53;;;;;;;12.94;86.24;100120.16;5037489;28;20032;-79
2023/09/29 03:41:49;;;;;;;12.85;7.80;;;;;;;12.94;86.39;100125.50;5055779;28;20048;-79
2023/09/29 03:44:14;;;;;;;12.77;8.32;;;;;;;12.94;86.40;100126.34;5058426;28;20028;-79
2023/09/29 03:46:39;;;;;;;12.07;7.18;;;;;;;12.97;86.42;100126.13;5058259;28;20029;-80
2023/09/29 03:49:05;;;;;;;13.50;8.05;;;;;;;13.01;85.95;100124.91;5032820;28;20060;-79
2023/09/29 03:51:30;;;;;;;12.52;7.70;;;;;;;13.06;85.81;100108.53;5028304;28;20059;-79
2023/09/29 03:53:57;;;;;;;12.57;8.07;;;;;;;13.09;86.22;100114.50;5017289;28;20043;-79
2023/09/29 03:56:23;;;;;;;19.42;9.07;;;;;;;13.17;85.20;100122.00;5032466;28;20045;-77
2023/09/29 03:58:50;;;;;;;13.25;7.68;;;;;;;13.23;85.31;100131.38;5016053;28;20043;-79
2023/09/29 04:01:17;;;;;;;14.98;8.23;;;;;;;13.29;85.62;100121.09;5022661;28;20044;-78
2023/09/29 04:03:42;;;;;;;15.63;8.13;;;;;;;13.35;84.87;100115.25;5011486;28;20055;-78
2023/09/29 04:06:08;;;;;;;13.88;8.32;;;;;;;13.46;84.83;100106.41;4991540;28;20052;-78
2023/09/29 04:08:33;;;;;;;14.13;7.90;;;;;;;13.56;84.55;100111.91;5003047;28;20071;-80
2023/09/29 04:10:58;;;;;;;18.77;8.00;;;;;;;13.66;83.63;100102.19;5029902;28;20060;-78
2023/09/29 04:13:24;;;;;;;12.90;7.80;;;;;;;13.77;82.73;100108.44;5026293;28;20040;-78
2023/09/29 04:15:49;;;;;;;12.63;8.25;;;;;;;13.90;82.26;100105.66;5028236;28;20048;-77
2023/09/29 04:18:14;;;;;;;12.13;8.18;;;;;;;14.02;81.32;100115.44;5037368;28;20055;-78
2023/09/29 04:20:41;;;;;;;21.02;9.70;;;;;;;14.14;81.31;100106.44;5045431;28;20059;-77
2023/09/29 04:23:07;;;;;;;13.32;8.63;;;;;;;14.25;80.46;100110.94;5018855;28;20493;-77
2023/09/29 04:25:32;;;;;;;14.45;8.45;;;;;;;14.34;79.84;100109.34;5020687;28;20538;-72
2023/09/29 04:27:57;;;;;;;15.25;7.95;;;;;;;14.43;79.40;100131.00;5047928;28;20044;-71
2023/09/29 04:30:22;;;;;;;14.88;7.93;;;;;;;14.53;78.72;100105.13;5019409;28;20048;-71
2023/09/29 04:32:48;;;;;;;16.00;8.80;;;;;;;14.65;78.21;100108.66;5036890;28;20044;-70
2023/09/29 04:35:13;;;;;;;16.52;8.95;;;;;;;14.75;77.53;100101.56;5036862;28;20036;-70
2023/09/29 04:37:38;;;;;;;17.27;8.60;;;;;;;14.86;77.05;100122.16;5053839;28;20052;-71
2023/09/29 04:40:04;;;;;;;15.35;9.50;;;;;;;15.00;76.46;100102.25;5065758;28;20051;-69
2023/09/29 04:42:32;;;;;;;15.98;9.45;;;;;;;15.10;75.67;100103.19;5012238;28;20053;-71
2023/09/29 04:44:57;;;;;;;17.48;8.77;;;;;;;15.12;75.06;100114.66;5025071;28;20403;-71
2023/09/29 04:47:23;;;;;;;16.25;9.05;;;;;;;15.19;75.10;100113.16;5026359;28;20052;-70
2023/09/29 04:49:49;;;;;;;13.52;8.13;;;;;;;15.32;74.99;100103.09;5011375;28;20446;-71
2023/09/29 04:52:14;;;;;;;19.30;9.15;;;;;;;15.50;74.75;100088.09;5049743;28;20403;-72
2023/09/29 04:54:39;;;;;;;17.92;8.90;;;;;;;15.76;74.17;100093.13;5050664;28;20056;-72
2023/09/29 04:57:04;;;;;;;17.75;9.60;;;;;;;15.95;73.27;100095.94;5048645;28;20045;-71
2023/09/29 04:59:30;;;;;;;17.00;8.68;;;;;;;16.14;71.92;100112.16;5038413;28;20053;-71
2023/09/29 05:01:55;;;;;;;13.55;8.75;;;;;;;16.36;71.41;100105.78;5038146;28;20439;-71
2023/09/29 05:04:20;;;;;;;12.85;8.85;;;;;;;16.51;70.35;100088.25;5020019;28;20040;-72
2023/09/29 05:06:45;;;;;;;12.98;9.35;;;;;;;16.64;69.88;100099.66;5019954;28;20048;-71
2023/09/29 05:09:11;;;;;;;18.80;9.27;;;;;;;16.88;69.06;100085.84;5040510;28;20048;-72
2023/09/29 05:11:36;;;;;;;16.40;8.85;;;;;;;17.15;68.43;100087.88;5041258;28;20044;-73
2023/09/29 05:14:02;;;;;;;14.40;9.00;;;;;;;17.54;67.21;100109.44;5019158;28;20053;-79
2023/09/29 05:16:27;;;;;;;17.48;9.60;;;;;;;17.98;65.34;100087.25;5008541;28;20070;-79
2023/09/29 05:18:53;;;;;;;13.85;8.27;;;;;;;18.35;64.10;100089.97;5045174;28;20407;-80
2023/09/29 05:21:20;;;;;;;14.20;9.05;;;;;;;18.78;62.99;100086.66;5043290;28;20056;-79
2023/09/29 05:23:45;;;;;;;16.33;9.15;;;;;;;19.15;61.70;100094.66;5048824;28;20045;-77
2023/09/29 05:26:11;;;;;;;13.07;8.52;;;;;;;19.55;60.08;100091.50;5027288;28;20048;-76
2023/09/29 05:28:38;;;;;;;15.88;9.57;;;;;;;19.75;58.68;100096.75;5048608;28;20408;-75
2023/09/29 05:31:04;;;;;;;16.38;8.70;;;;;;;19.98;57.90;100097.91;5023046;28;20051;-76
2023/09/29 05:33:30;;;;;;;13.23;7.97;;;;;;;20.27;57.06;100087.63;5040302;28;20534;-75
2023/09/29 05:35:56;;;;;;;15.77;9.88;;;;;;;20.43;55.88;100086.88;5039927;28;20396;-75
2023/09/29 05:38:22;;;;;;;13.38;8.57;;;;;;;20.51;55.63;100089.66;5037521;28;20399;-76
2023/09/29 05:40:49;;;;;;;17.40;9.25;;;;;;;20.60;55.23;100076.97;5039995;28;20040;-77
2023/09/29 05:43:17;;;;;;;17.70;7.70;;;;;;;20.62;54.54;100080.38;4995708;28;20063;-76
2023/09/29 05:45:44;;;;;;;14.13;8.40;;;;;;;20.78;54.47;100079.56;5025972;28;20518;-77
2023/09/29 05:48:09;;;;;;;12.63;7.85;;;;;;;21.17;53.65;100086.13;5004984;28;20523;-78
2023/09/29 05:50:38;;;;;;;13.93;8.82;;;;;;;21.79;52.42;100086.50;5000515;28;20128;-78
2023/09/29 05:53:04;;;;;;;16.70;8.48;;;;;;;22.54;50.52;100076.22;4966477;28;20059;-77
2023/09/29 05:55:30;;;;;;;13.48;8.48;;;;;;;23.15;48.58;100077.25;5016118;28;20048;-74
2023/09/29 05:57:56;;;;;;;10.85;8.55;;;;;;;23.81;47.48;100081.22;4998832;28;20049;-76
2023/09/29 06:00:21;;;;;;;10.85;7.63;;;;;;;24.16;44.76;100077.78;5017846;28;20045;-76
2023/09/29 06:02:47;;;;;;;14.98;8.30;;;;;;;24.42;44.64;100074.63;5010438;28;20407;-77
2023/09/29 06:05:13;;;;;;;13.20;7.88;;;;;;;24.61;44.14;100059.56;5072995;28;20048;-76
2023/09/29 06:07:39;;;;;;;10.23;7.15;;;;;;;24.83;44.30;100083.13;5060965;28;20043;-75
2023/09/29 06:10:06;;;;;;;14.85;8.02;;;;;;;24.85;43.13;100077.50;5045025;28;20047;-76
2023/09/29 06:12:31;;;;;;;12.13;7.88;;;;;;;24.95;43.26;100070.72;5061152;28;20044;-76
2023/09/29 06:14:57;;;;;;;11.73;7.55;;;;;;;25.13;43.19;100069.47;5057333;28;20044;-76
2023/09/29 06:17:23;;;;;;;13.40;7.95;;;;;;;25.46;42.29;100088.94;5056543;28;20044;-74
2023/09/29 06:19:48;;;;;;;17.17;8.38;;;;;;;26.03;41.35;100091.56;5057310;28;20113;-78
2023/09/29 06:22:14;;;;;;;21.80;7.72;;;;;;;26.75;39.69;100067.41;5057546;28;20058;-77
2023/09/29 06:24:39;;;;;;;13.98;7.47;;;;;;;27.72;38.37;100064.34;5021727;28;20048;-77
2023/09/29 06:27:04;;;;;;;14.27;7.72;;;;;;;28.80;36.40;100046.44;5033354;28;20071;-77
2023/09/29 06:29:29;;;;;;;16.83;7.25;;;;;;;29.59;34.35;100080.88;5036947;28;20044;-77
2023/09/29 06:31:55;;;;;;;12.85;8.15;;;;;;;30.32;33.41;100062.69;5027463;28;20043;-77
2023/09/29 06:34:20;;;;;;;18.25;7.97;;;;;;;30.96;32.44;100063.22;5051144;28;20063;-77
2023/09/29 06:36:45;;;;;;;16.98;7.22;;;;;;;31.49;31.52;100059.75;5050190;28;20047;-78
2023/09/29 06:39:12;;;;;;;10.85;7.57;;;;;;;32.01;30.59;100074.63;5021239;28;20540;-78
2023/09/29 06:41:37;;;;;;;14.02;7.85;;;;;;;32.64;30.03;100058.16;5019164;28;20055;-78
2023/09/29 06:44:03;;;;;;;21.58;9.48;;;;;;;33.09;28.82;100054.66;5018403;28;20044;-77
2023/09/29 06:46:28;;;;;;;18.75;9.30;;;;;;;33.44;28.50;100044.31;5001416;28;20053;-77
2023/09/29 06:48:53;;;;;;;11.32;8.10;;;;;;;33.80;28.16;100056.03;5035816;28;20049;-77
2023/09/29 06:51:18;;;;;;;18.45;8.88;;;;;;;34.21;27.41;100051.94;5035866;28;20511;-77
2023/09/29 06:53:44;;;;;;;14.77;8.40;;;;;;;34.57;26.98;100048.63;5017831;28;20048;-77
2023/09/29 06:56:10;;;;;;;19.27;8.52;;;;;;;34.92;26.44;100048.25;5034023;28;20396;-78
2023/09/29 06:58:35;;;;;;;19.48;9.02;;;;;;;35.29;26.05;100075.31;5035381;28;20049;-77
2023/09/29 07:01:01;;;;;;;11.90;8.05;;;;;;;35.68;25.74;100043.50;5001898;28;20060;-77
2023/09/29 07:03:29;;;;;;;22.52;8.40;;;;;;;36.09;25.45;100032.78;5037658;28;20032;-77
2023/09/29 07:05:55;;;;;;;10.57;8.23;;;;;;;36.27;24.65;100054.56;5021426;28;20517;-79
2023/09/29 07:08:20;;;;;;;16.00;8.50;;;;;;;36.07;24.50;100032.19;5039281;28;20050;-78
2023/09/29 07:10:46;;;;;;;15.32;8.55;;;;;;;35.69;24.64;100033.25;5039184;28;20494;-78
2023/09/29 07:13:11;;;;;;;14.82;8.35;;;;;;;35.78;24.84;100034.47;5056668;28;20063;-78
2023/09/29 07:15:36;;;;;;;9.82;7.68;;;;;;;36.32;24.69;100028.78;5006327;28;20521;-76
2023/09/29 07:18:02;;;;;;;10.45;8.05;;;;;;;37.06;23.98;100034.94;5059085;28;20044;-74
2023/09/29 07:20:30;;;;;;;17.42;8.27;;;;;;;37.63;23.06;100038.69;5056260;28;20051;-78
2023/09/29 07:22:56;;;;;;;15.75;10.00;;;;;;;37.37;22.97;100041.41;5015750;28;20059;-78
2023/09/29 07:25:22;;;;;;;15.30;8.32;;;;;;;37.70;23.05;100061.53;5054484;28;20051;-76
2023/09/29 07:27:47;;;;;;;18.40;9.45;;;;;;;38.31;22.33;100031.69;5056254;28;20040;-76
2023/09/29 07:30:13;;;;;;;15.75;9.48;;;;;;;38.83;21.58;100033.16;5056316;28;20513;-77
2023/09/29 07:32:42;;;;;;;24.02;9.75;;;;;;;39.26;21.19;100037.16;5060694;28;20050;-78
2023/09/29 07:35:08;;;;;;;13.63;8.65;;;;;;;39.07;21.31;100047.28;5052274;28;20040;-77
2023/09/29 07:37:34;;;;;;;12.18;8.90;;;;;;;39.31;21.19;100044.66;5065324;28;20054;-78
2023/09/29 07:39:59;;;;;;;17.67;9.20;;;;;;;39.59;20.79;100031.94;5039892;28;20475;-81
2023/09/29 07:42:24;;;;;;;12.70;8.65;;;;;;;40.20;20.56;100024.66;5021480;28;20071;-79
2023/09/29 07:44:50;;;;;;;13.45;9.05;;;;;;;40.82;19.59;99986.50;5056935;28;20036;-78
2023/09/29 07:47:15;;;;;;;15.75;9.02;;;;;;;41.01;19.51;100022.88;5055604;28;20438;-79
2023/09/29 07:49:40;;;;;;;17.45;9.73;;;;;;;41.18;19.16;100026.00;5038641;28;20491;-81
2023/09/29 07:52:09;;;;;;;15.57;8.77;;;;;;;41.20;19.25;100039.69;5056588;28;20146;-77
2023/09/29 07:54:34;;;;;;;16.98;9.63;;;;;;;41.56;19.15;100018.41;5057109;28;20071;-77
2023/09/29 07:57:00;;;;;;;15.02;10.10;;;;;;;41.99;18.87;100024.69;5057000;28;20048;-78
2023/09/29 07:59:26;;;;;;;15.20;10.07;;;;;;;42.22;18.25;100034.06;5021467;28;20067;-78
2023/09/29 08:01:52;;;;;;;16.05;10.55;;;;;;;42.58;18.31;100024.97;5038921;28;20525;-77
2023/09/29 08:04:17;;;;;;;12.90;9.43;;;;;;;42.96;18.28;100036.81;5038704;28;20048;-77
2023/09/29 08:06:43;;;;;;;11.15;9.95;;;;;;;43.32;17.77;100025.63;5055589;28;20056;-76
2023/09/29 08:09:08;;;;;;;25.02;10.75;;;;;;;43.47;17.65;100026.06;5029021;28;20055;-75
2023/09/29 08:11:34;;;;;;;14.82;9.48;;;;;;;43.81;17.68;100022.69;5017130;28;20056;-76
2023/09/29 08:13:59;;;;;;;13.57;10.45;;;;;;;44.02;17.49;100008.97;5033424;28;20056;-74
2023/09/29 08:16:24;;;;;;;13.05;10.70;;;;;;;43.98;17.09;100012.75;5035229;28;20059;-76
2023/09/29 08:18:49;;;;;;;13.13;9.75;;;;;;;43.87;17.27;100006.56;5034108;28;20415;-76
2023/09/29 08:21:15;;;;;;;16.88;10.43;;;;;;;43.94;17.45;100011.69;5034072;28;20518;-75
2023/09/29 08:23:40;;;;;;;16.80;10.45;;;;;;;43.61;17.47;100016.78;5001507;28;20067;-77
2023/09/29 08:26:05;;;;;;;13.80;10.73;;;;;;;43.36;17.81;100012.59;5037950;28;20052;-77
2023/09/29 08:28:31;;;;;;;13.57;9.80;;;;;;;43.60;17.91;100001.91;5019525;28;20577;-75
2023/09/29 08:30:56;;;;;;;11.88;9.80;;;;;;;43.66;17.34;100013.84;5038815;28;20070;-76
2023/09/29 08:33:23;;;;;;;16.95;10.90;;;;;;;43.61;17.67;99997.13;5042400;28;20059;-77
2023/09/29 08:35:48;;;;;;;14.43;10.00;;;;;;;43.81;17.63;99996.59;5060160;28;20040;-76
2023/09/29 08:38:14;;;;;;;14.02;10.32;;;;;;;44.24;17.24;100021.31;5058362;28;20047;-77
2023/09/29 08:40:41;;;;;;;13.10;11.43;;;;;;;44.87;16.75;99995.59;5039149;28;20043;-77
2023/09/29 08:43:10;;;;;;;12.40;10.38;;;;;;;45.52;16.21;99983.38;5057661;28;20058;-76
2023/09/29 08:45:41;;;;;;;12.10;10.55;;;;;;;45.94;15.90;99992.94;5040795;28;20096;-75
2023/09/29 08:48:11;;;;;;;12.90;10.50;;;;;;;46.32;15.31;99987.31;5058342;28;20410;-78
2023/09/29 08:50:40;;;;;;;15.45;10.50;;;;;;;46.47;15.08;100000.84;5030792;28;20534;-77
2023/09/29 08:53:08;;;;;;;11.13;10.05;;;;;;;46.50;15.29;99988.91;5019462;28;20075;-77
2023/09/29 08:55:34;;;;;;;10.65;9.70;;;;;;;46.33;15.18;99974.03;5019641;28;20212;-76
2023/09/29 08:58:01;;;;;;;11.35;10.25;;;;;;;46.28;15.35;99994.78;5019916;28;20048;-76
2023/09/29 09:00:27;;;;;;;17.63;12.20;;;;;;;46.03;15.28;99979.63;5038377;28;20047;-77
2023/09/29 09:02:52;;;;;;;22.13;10.18;;;;;;;45.42;15.54;99973.25;5002938;28;20040;-76
2023/09/29 09:05:20;;;;;;;13.95;9.35;;;;;;;45.05;15.94;99966.28;5032169;28;20056;-78
2023/09/29 09:07:45;;;;;;;13.27;9.20;;;;;;;44.93;16.06;99956.84;5039439;28;20047;-76
2023/09/29 09:10:13;;;;;;;16.67;9.70;;;;;;;44.83;16.02;99972.88;5038098;28;20422;-77
2023/09/29 09:12:40;;;;;;;13.52;10.60;;;;;;;44.91;16.38;99967.63;5057172;28;20521;-76
2023/09/29 09:15:08;;;;;;;11.65;9.45;;;;;;;45.10;16.06;99983.03;5057243;28;20075;-78
2023/09/29 09:17:35;;;;;;;13.52;9.02;;;;;;;44.96;15.97;99964.63;5022648;28;20048;-79
2023/09/29 09:20:01;;;;;;;9.50;8.60;;;;;;;44.79;16.11;99959.84;5039300;28;20044;-78
2023/09/29 09:22:33;;;;;;;10.88;9.75;;;;;;;44.92;16.08;99974.91;5024772;28;20037;-77
2023/09/29 09:25:01;;;;;;;11.98;9.88;;;;;;;44.71;16.22;99958.63;4998771;28;20518;-77
2023/09/29 09:27:36;;;;;;;12.77;9.98;;;;;;;44.43;16.36;99951.63;5016957;28;20045;-77
2023/09/29 09:30:01;;;;;;;13.85;10.05;;;;;;;43.95;16.62;99948.72;4982416;28;20135;-77
2023/09/29 09:32:31;;;;;;;13.75;9.25;;;;;;;43.61;16.86;99944.59;4998672;28;20053;-77
2023/09/29 09:34:58;;;;;;;13.45;9.30;;;;;;;43.16;17.05;99940.94;5016053;28;20055;-77
2023/09/29 09:37:27;;;;;;;16.15;9.45;;;;;;;43.30;17.11;99935.28;5016702;28;20051;-76
2023/09/29 09:39:59;;;;;;;16.10;8.82;;;;;;;42.65;17.00;99942.13;5017325;28;20046;-76
2023/09/29 09:42:28;;;;;;;10.32;8.13;;;;;;;42.07;17.84;99946.69;5000073;28;20048;-80
2023/09/29 09:44:59;;;;;;;9.13;7.88;;;;;;;41.53;18.06;99948.22;5005771;28;20478;-77
2023/09/29 09:47:25;;;;;;;10.63;7.65;;;;;;;40.98;18.62;99948.78;5021200;28;20395;-80
2023/09/29 09:49:56;;;;;;;17.55;8.52;;;;;;;40.66;19.00;99942.25;5055466;28;20048;-80
2023/09/29 09:52:29;;;;;;;10.65;7.63;;;;;;;40.51;18.70;99938.53;5055350;28;20406;-77
2023/09/29 09:54:56;;;;;;;;;;;;;;;42.01;18.13;99931.94;5057162;28;20059;-76
2023/09/29 09:57:25;;;;;;;11.15;7.43;;;;;;;41.07;18.64;99942.50;5025387;28;19927;-76
2023/09/29 09:59:54;;;;;;;10.57;7.78;;;;;;;40.41;18.67;99901.53;5041714;28;20051;-78
2023/09/29 10:02:22;;;;;;;14.98;7.70;;;;;;;40.41;18.96;99929.47;5052872;28;20052;-76
2023/09/29 10:04:48;;;;;;;10.55;7.80;;;;;;;40.58;18.80;99924.19;5053786;28;20051;-77
2023/09/29 10:07:14;;;;;;;11.68;8.60;;;;;;;40.14;19.35;99922.50;5050550;28;20055;-77
2023/09/29 10:09:49;;;;;;;9.38;7.35;;;;;;;39.18;20.10;99937.34;5051776;28;20045;-76
2023/09/29 10:12:28;;;;;;;15.23;6.63;;;;;;;37.56;21.41;99926.84;5036718;28;20517;-78
2023/09/29 10:14:55;;;;;;;9.93;7.53;;;;;;;35.49;22.71;99913.84;5014526;28;20049;-79
2023/09/29 10:17:21;;;;;;;13.40;7.38;;;;;;;34.10;24.59;99920.06;5004542;28;20040;-79
2023/09/29 10:19:51;;;;;;;13.75;6.60;;;;;;;32.91;25.97;99925.91;5040916;28;20052;-79
2023/09/29 10:22:25;;;;;;;9.65;6.07;;;;;;;32.03;26.86;99946.44;5051492;28;20048;-72
2023/09/29 10:24:56;;;;;;;11.48;7.00;;;;;;;30.92;28.32;99918.84;5002614;28;20506;-76
2023/09/29 10:27:28;;;;;;;9.75;7.00;;;;;;;30.34;29.66;99919.44;5031827;28;20055;-72
2023/09/29 10:30:15;;;;;;;11.85;6.95;;;;;;;29.79;30.71;99922.16;5053890;28;20040;-73
2023/09/29 10:32:45;;;;;;;11.57;6.93;;;;;;;29.13;31.28;99933.69;5032135;28;20039;-71
2023/09/29 10:35:20;;;;;;;10.07;6.07;;;;;;;28.68;31.53;99912.88;5034535;28;20044;-71
2023/09/29 10:37:54;;;;;;;14.48;6.75;;;;;;;28.26;31.81;99912.47;5035236;28;20043;-73
2023/09/29 10:40:32;;;;;;;13.85;6.05;;;;;;;28.05;32.23;99908.09;5035179;28;20490;-72
2023/09/29 10:43:04;;;;;;;10.85;6.57;;;;;;;27.68;32.86;99939.78;5046540;28;20055;-71
2023/09/29 10:45:37;;;;;;;11.45;6.57;;;;;;;27.43;33.27;99919.56;5035894;28;21149;-73
2023/09/29 10:48:08;;;;;;;13.27;6.55;;;;;;;27.22;33.71;99933.47;5049826;28;20044;-73
2023/09/29 10:50:44;;;;;;;8.77;6.00;;;;;;;27.06;34.12;99932.00;5033301;28;20044;-72
2023/09/29 10:53:10;;;;;;;13.52;7.10;;;;;;;26.76;33.75;99906.88;5048158;28;20514;-72
2023/09/29 10:55:41;;;;;;;14.32;6.50;;;;;;;26.62;33.88;99905.19;4980551;28;20511;-72
2023/09/29 10:58:06;;;;;;;12.23;6.10;;;;;;;26.40;34.69;99901.75;4997000;28;20055;-72
2023/09/29 11:00:49;;;;;;;8.48;5.95;;;;;;;26.28;34.76;99908.84;5027878;28;20044;-74
2023/09/29 11:03:29;;;;;;;9.68;5.95;;;;;;;26.10;34.68;99897.59;5052542;28;20513;-71
2023/09/29 11:06:08;;;;;;;14.38;6.18;;;;;;;25.94;35.85;99887.88;5007273;28;20045;-72
2023/09/29 11:08:38;;;;;;;10.60;6.15;;;;;;;25.85;35.90;99897.25;4990074;28;20056;-71
2023/09/29 11:11:06;;;;;;;11.82;6.30;;;;;;;25.71;36.13;99895.53;5045829;28;20058;-71
2023/09/29 11:13:31;;;;;;;15.50;6.70;;;;;;;25.58;35.61;99907.16;5055109;28;20043;-72
2023/09/29 11:16:01;;;;;;;11.13;6.40;;;;;;;25.49;36.23;99902.91;5036786;28;20054;-73
2023/09/29 11:18:34;;;;;;;9.00;5.45;;;;;;;25.41;36.83;99890.22;5026618;28;20894;-72